Time;durP1;ratioP1;P1;durP2;ratioP2;P2;SDS_P1;SDS_P2;PMS_P1;PMS_P2;Temp;Humidity;BMP_temperature;BMP_pressure;BME280_temperature;BME280_humidity;BME280_pressure;Samples;Min_cycle;Max_cycle;Signal;HPM_P1;HPM_P2
2023/02/22 00:02:33;;;;;;;0.00;0.00;;;;;;;-145.06;100.00;53896.44;10427767;28;20476;-87
2023/02/22 00:07:34;;;;;;;0.00;0.00;;;;;;;-145.06;100.00;53892.38;10419915;28;20036;-86
2023/02/22 00:12:35;;;;;;;0.08;0.08;;;;;;;-145.06;100.00;53880.22;10424953;28;20028;-86
2023/02/22 00:17:35;;;;;;;0.00;0.00;;;;;;;-145.06;100.00;53874.16;10412929;28;20428;-84
2023/02/22 00:22:36;;;;;;;0.00;0.00;;;;;;;-145.06;100.00;53866.06;10423660;28;20025;-84
2023/02/22 00:27:37;;;;;;;0.10;0.10;;;;;;;-145.06;100.00;53849.84;10416153;28;20308;-86
2023/02/22 00:32:37;;;;;;;0.00;0.00;;;;;;;-145.06;100.00;53912.63;10418470;28;20081;-86
2023/02/22 00:37:40;;;;;;;0.00;0.00;;;;;;;-145.06;100.00;53886.31;10426281;28;20531;-87
2023/02/22 00:42:40;;;;;;;0.08;0.08;;;;;;;-145.06;100.00;53862.00;10422889;28;20025;-86
2023/02/22 00:47:41;;;;;;;0.00;0.00;;;;;;;-145.06;100.00;53898.47;10420388;28;20056;-86
2023/02/22 00:52:42;;;;;;;0.00;0.00;;;;;;;-145.06;100.00;53862.00;10420414;28;20029;-86
2023/02/22 00:57:44;;;;;;;0.03;0.03;;;;;;;-145.06;100.00;53892.38;10416365;28;20025;-83
2023/02/22 01:02:45;;;;;;;0.10;0.10;;;;;;;-145.06;100.00;53894.41;10417493;28;20035;-86
2023/02/22 01:07:46;;;;;;;0.00;0.00;;;;;;;-145.06;100.00;53880.22;10417587;28;20386;-85
2023/02/22 01:12:48;;;;;;;0.08;0.08;;;;;;;-145.06;100.00;53886.31;10417678;28;20059;-87
2023/02/22 01:17:52;;;;;;;0.00;0.00;;;;;;;-145.06;100.00;53894.41;10427046;28;20500;-88
2023/02/22 01:22:55;;;;;;;0.00;0.00;;;;;;;-145.06;100.00;53912.63;10422235;28;20100;-85
2023/02/22 01:27:57;;;;;;;0.00;0.00;;;;;;;-145.06;100.00;53896.44;10422738;28;20021;-87
2023/02/22 01:32:58;;;;;;;0.10;0.10;;;;;;;-145.06;100.00;53898.47;10426102;28;20021;-86
2023/02/22 01:37:58;;;;;;;0.00;0.00;;;;;;;-145.06;100.00;53851.88;10418409;28;20380;-86
2023/02/22 01:43:01;;;;;;;0.00;0.00;;;;;;;-145.06;100.00;53868.09;10427639;28;20119;-84
2023/02/22 01:48:08;;;;;;;0.00;0.00;;;;;;;-145.06;100.00;53892.38;10431083;28;20443;-86
2023/02/22 01:53:13;;;;;;;0.10;0.10;;;;;;;-145.06;100.00;53876.19;10421076;28;20504;-84
2023/02/22 01:58:15;;;;;;;0.00;0.00;;;;;;;-145.06;100.00;53898.47;10435895;28;20025;-85
2023/02/22 02:03:26;;;;;;;0.00;0.00;;;;;;;-145.06;100.00;53896.44;10425886;28;20038;-87
2023/02/22 02:08:48;;;;;;;0.00;0.00;;;;;;;-145.06;100.00;53914.66;10436700;28;20029;-86
2023/02/22 02:13:50;;;;;;;0.00;0.00;;;;;;;-145.06;100.00;53888.34;10435702;28;20021;-86
2023/02/22 02:18:51;;;;;;;0.00;0.00;;;;;;;-145.06;100.00;53882.25;10421185;28;20077;-86
2023/02/22 02:23:58;;;;;;;0.00;0.00;;;;;;;-145.06;100.00;53884.28;10423205;28;20017;-87
2023/02/22 02:29:16;;;;;;;0.00;0.00;;;;;;;-145.06;100.00;53892.38;10426457;28;20036;-87
2023/02/22 02:34:54;;;;;;;0.08;0.08;;;;;;;-145.06;100.00;53892.38;10432851;28;20473;-87
2023/02/22 02:40:20;;;;;;;0.00;0.00;;;;;;;-145.06;100.00;53916.69;10434832;28;20028;-87
2023/02/22 02:45:31;;;;;;;0.00;0.00;;;;;;;-145.06;100.00;53904.53;10422017;28;20034;-87
2023/02/22 02:50:43;;;;;;;0.00;0.00;;;;;;;-145.06;100.00;53884.28;10430280;28;20507;-85
2023/02/22 02:55:43;;;;;;;0.10;0.10;;;;;;;-145.06;100.00;53886.31;10428579;28;20021;-84
2023/02/22 03:00:45;;;;;;;0.00;0.00;;;;;;;-145.06;100.00;53868.09;10406889;28;20133;-84
2023/02/22 03:06:07;;;;;;;0.00;0.00;;;;;;;-145.06;100.00;53888.34;10423699;28;20021;-86
2023/02/22 03:11:18;;;;;;;0.00;0.00;;;;;;;-145.06;100.00;53855.94;10412997;28;20398;-85
2023/02/22 03:16:28;;;;;;;0.00;0.00;;;;;;;-145.06;100.00;53870.09;10429911;28;20017;-87
2023/02/22 03:21:59;;;;;;;0.03;0.03;;;;;;;-145.06;100.00;53898.47;10429500;28;20017;-87
2023/02/22 03:27:08;;;;;;;0.10;0.10;;;;;;;-145.06;100.00;53926.81;10410962;28;20076;-84
2023/02/22 03:32:19;;;;;;;0.10;0.10;;;;;;;-145.06;100.00;53900.50;10418112;28;20044;-85
2023/02/22 03:37:24;;;;;;;0.10;0.10;;;;;;;-145.06;100.00;53878.22;10431272;28;20033;-85
2023/02/22 03:42:36;;;;;;;0.00;0.00;;;;;;;-145.06;100.00;53920.75;10378632;23;20050;-83
2023/02/22 03:47:40;;;;;;;0.00;0.00;;;;;;;-145.06;100.00;53882.25;10365249;28;20160;-83
2023/02/22 03:52:42;;;;;;;0.10;0.10;;;;;;;-145.06;100.00;53859.97;10369869;28;20099;-82
2023/02/22 03:57:49;;;;;;;0.00;0.00;;;;;;;-145.06;100.00;53888.34;10351746;28;20763;-83
2023/02/22 04:02:49;;;;;;;0.00;0.00;;;;;;;-145.06;100.00;53918.72;10367298;28;20508;-82
2023/02/22 04:07:55;;;;;;;0.00;0.00;;;;;;;-145.06;100.00;53908.59;10351734;28;20025;-84
2023/02/22 04:12:55;;;;;;;0.10;0.10;;;;;;;-145.06;100.00;53912.63;10364799;28;20026;-83
2023/02/22 04:17:55;;;;;;;0.10;0.10;;;;;;;-145.06;100.00;53898.47;10369626;28;20025;-82
2023/02/22 04:22:56;;;;;;;0.00;0.00;;;;;;;-145.06;100.00;53872.13;10368919;28;20022;-82
2023/02/22 04:27:56;;;;;;;0.00;0.00;;;;;;;-145.06;100.00;53900.50;10363544;28;20050;-83
2023/02/22 04:32:57;;;;;;;0.10;0.10;;;;;;;-145.06;100.00;53892.38;10369400;28;20022;-83
2023/02/22 04:37:57;;;;;;;0.00;0.00;;;;;;;-145.06;100.00;53904.53;10369295;28;20018;-83
2023/02/22 04:42:59;;;;;;;0.00;0.00;;;;;;;-145.06;100.00;53912.63;10347931;28;20107;-83
2023/02/22 04:47:59;;;;;;;0.00;0.00;;;;;;;-145.06;100.00;53896.44;10343133;28;20033;-83
2023/02/22 04:52:59;;;;;;;0.00;0.00;;;;;;;-145.06;100.00;53888.34;10345351;28;20038;-82
2023/02/22 04:57:59;;;;;;;0.00;0.00;;;;;;;-145.06;100.00;53874.16;10350826;28;20018;-83
2023/02/22 05:03:00;;;;;;;0.00;0.00;;;;;;;-145.06;100.00;53884.28;10339202;28;20038;-83
2023/02/22 05:08:00;;;;;;;0.00;0.00;;;;;;;-145.06;100.00;53874.16;10367604;28;20030;-84
2023/02/22 05:13:01;;;;;;;0.00;0.00;;;;;;;-145.06;100.00;53876.19;10357620;28;20076;-83
2023/02/22 05:18:01;;;;;;;0.00;0.00;;;;;;;-145.06;100.00;53880.22;10355616;28;20057;-83
2023/02/22 05:23:02;;;;;;;0.10;0.10;;;;;;;-145.06;100.00;53872.13;10372409;28;20053;-82
2023/02/22 05:28:09;;;;;;;0.10;0.10;;;;;;;-145.06;100.00;53908.59;10351456;28;20493;-82
2023/02/22 05:33:09;;;;;;;0.00;0.00;;;;;;;-145.06;100.00;53855.94;10352564;28;20725;-83
2023/02/22 05:38:13;;;;;;;0.00;0.00;;;;;;;-145.06;100.00;53900.50;10367394;28;20021;-82
2023/02/22 05:43:14;;;;;;;0.00;0.00;;;;;;;-145.06;100.00;53892.38;10374428;28;20105;-82
2023/02/22 05:48:15;;;;;;;0.05;0.05;;;;;;;-145.06;100.00;53924.78;10369487;28;20375;-82
2023/02/22 05:53:15;;;;;;;0.00;0.00;;;;;;;-145.06;100.00;53868.09;10349102;28;20025;-82
2023/02/22 05:58:15;;;;;;;0.00;0.00;;;;;;;-145.06;100.00;53916.69;10372798;28;20253;-82
2023/02/22 06:03:15;;;;;;;0.08;0.08;;;;;;;-145.06;100.00;53886.31;10347307;28;20273;-83
2023/02/22 06:08:16;;;;;;;0.10;0.10;;;;;;;-145.06;100.00;53876.19;10354045;28;20026;-82
2023/02/22 06:13:17;;;;;;;0.10;0.10;;;;;;;-145.06;100.00;53914.66;10352356;28;20112;-82
2023/02/22 06:18:17;;;;;;;0.00;0.00;;;;;;;-145.06;100.00;53876.19;10369376;28;20025;-82
2023/02/22 06:23:17;;;;;;;0.00;0.00;;;;;;;-145.06;100.00;53884.28;10373264;28;20033;-82
2023/02/22 06:28:18;;;;;;;0.00;0.00;;;;;;;-145.06;100.00;53888.34;10367218;28;20014;-82
2023/02/22 06:33:18;;;;;;;0.00;0.00;;;;;;;-145.06;100.00;53851.88;10372316;28;20018;-83
2023/02/22 06:38:24;;;;;;;0.00;0.00;;;;;;;-145.06;100.00;53906.56;10369387;28;20052;-83
2023/02/22 06:43:25;;;;;;;0.00;0.00;;;;;;;-145.06;100.00;53926.81;10369374;28;20064;-83
2023/02/22 06:48:25;;;;;;;0.00;0.00;;;;;;;-145.06;100.00;53949.09;10371442;28;20025;-82
2023/02/22 06:53:25;;;;;;;0.00;0.00;;;;;;;-145.06;100.00;53914.66;10368307;28;20392;-83
2023/02/22 06:58:26;;;;;;;0.10;0.10;;;;;;;-145.06;100.00;53886.31;10355224;28;20022;-82
2023/02/22 07:03:26;;;;;;;0.00;0.00;;;;;;;-145.06;100.00;53886.31;10343887;28;20025;-83
2023/02/22 07:08:27;;;;;;;0.10;0.10;;;;;;;-145.06;100.00;53888.34;10348491;28;20022;-83
2023/02/22 07:13:28;;;;;;;0.00;0.00;;;;;;;-145.06;100.00;53864.03;10368106;28;20030;-83
2023/02/22 07:18:28;;;;;;;0.00;0.00;;;;;;;-145.06;100.00;53961.25;10371705;28;20020;-83
2023/02/22 07:23:29;;;;;;;0.00;0.00;;;;;;;-145.06;100.00;53908.59;10368351;28;20025;-83
2023/02/22 07:28:29;;;;;;;0.00;0.00;;;;;;;-145.06;100.00;53894.41;10368204;28;20519;-83
2023/02/22 07:33:29;;;;;;;0.10;0.10;;;;;;;-145.06;100.00;53878.22;10347036;28;20288;-83
2023/02/22 07:38:30;;;;;;;0.10;0.10;;;;;;;-145.06;100.00;53894.41;10336724;28;20272;-82
2023/02/22 07:43:30;;;;;;;0.00;0.00;;;;;;;-145.06;100.00;53900.50;10362675;28;20026;-83
2023/02/22 07:48:31;;;;;;;0.10;0.10;;;;;;;-145.06;100.00;53904.53;10368250;28;20022;-83
2023/02/22 07:53:32;;;;;;;0.00;0.00;;;;;;;-145.06;100.00;53868.09;10372407;28;20507;-84
2023/02/22 07:58:34;;;;;;;0.00;0.00;;;;;;;-145.06;100.00;53884.28;10372494;28;20010;-84
2023/02/22 08:03:35;;;;;;;0.10;0.10;;;;;;;-145.06;100.00;53890.38;10346876;28;20033;-83
2023/02/22 08:08:35;;;;;;;0.00;0.00;;;;;;;-145.06;100.00;53904.53;10366369;28;20025;-82
2023/02/22 08:13:37;;;;;;;0.00;0.00;;;;;;;-145.06;100.00;53878.22;10348111;28;20029;-84
2023/02/22 08:18:39;;;;;;;0.10;0.10;;;;;;;-145.06;100.00;53896.44;10346207;28;20096;-82
2023/02/22 08:23:40;;;;;;;0.08;0.08;;;;;;;-145.06;100.00;53892.38;10334892;28;20492;-83
2023/02/22 08:28:40;;;;;;;0.10;0.10;;;;;;;-145.06;100.00;53884.28;10369159;28;20776;-84
2023/02/22 08:33:41;;;;;;;0.00;0.00;;;;;;;-145.06;100.00;53886.31;10350158;28;20101;-83
2023/02/22 08:38:41;;;;;;;0.10;0.10;;;;;;;-145.06;100.00;53880.22;10378660;28;20268;-83
2023/02/22 08:43:42;;;;;;;0.00;0.00;;;;;;;-145.06;100.00;53886.31;10372717;28;20026;-83
2023/02/22 08:48:50;;;;;;;0.10;0.10;;;;;;;-145.06;100.00;53876.19;10349553;28;20095;-83
2023/02/22 08:53:52;;;;;;;0.10;0.10;;;;;;;-145.06;100.00;53866.06;10372873;28;20018;-83
2023/02/22 08:58:52;;;;;;;0.00;0.00;;;;;;;-145.06;100.00;53849.84;10351277;28;20017;-83
2023/02/22 09:03:52;;;;;;;0.10;0.10;;;;;;;-145.06;100.00;53815.44;10345781;28;20026;-84
2023/02/22 09:08:53;;;;;;;0.10;0.10;;;;;;;-145.06;100.00;53803.28;10370131;28;20088;-84
2023/02/22 09:13:53;;;;;;;0.10;0.10;;;;;;;-145.06;100.00;53847.84;10374994;28;20069;-84
2023/02/22 09:18:53;;;;;;;0.10;0.10;;;;;;;-145.06;100.00;53864.03;10369070;28;20041;-84
2023/02/22 09:23:55;;;;;;;0.10;0.10;;;;;;;-145.06;100.00;53868.09;10355873;28;20026;-84
2023/02/22 09:28:55;;;;;;;0.10;0.10;;;;;;;-145.06;100.00;53847.84;10357841;28;20022;-84
2023/02/22 09:33:56;;;;;;;0.10;0.10;;;;;;;-145.06;100.00;53900.50;10354379;28;20607;-84
2023/02/22 09:38:57;;;;;;;0.03;0.03;;;;;;;-145.06;100.00;53896.44;10408485;23;20017;-86
2023/02/22 09:44:37;;;;;;;0.10;0.10;;;;;;;-145.06;100.00;53841.75;10439554;28;20487;-84
2023/02/22 09:49:46;;;;;;;0.10;0.10;;;;;;;-145.06;100.00;53872.13;10430607;28;20558;-82
2023/02/22 09:54:51;;;;;;;0.10;0.10;;;;;;;-145.06;100.00;53843.78;10429627;28;20029;-85
2023/02/22 10:00:06;;;;;;;0.10;0.10;;;;;;;-145.06;100.00;53843.78;10450460;28;20035;-83
2023/02/22 10:05:16;;;;;;;0.10;0.10;;;;;;;-145.06;100.00;53841.75;10439295;28;20036;-85
2023/02/22 10:10:18;;;;;;;0.00;0.00;;;;;;;-145.06;100.00;53870.09;10425249;28;20083;-83
2023/02/22 10:15:53;;;;;;;0.10;0.10;;;;;;;-145.06;100.00;53847.84;10439031;28;20091;-85
2023/02/22 10:21:01;;;;;;;0.00;0.00;;;;;;;-145.06;100.00;53847.84;10421291;28;20040;-82
2023/02/22 10:26:15;;;;;;;0.10;0.10;;;;;;;-145.06;100.00;53866.06;10428959;28;20029;-85
2023/02/22 10:31:23;;;;;;;0.00;0.00;;;;;;;-145.06;100.00;53841.75;10420974;28;20037;-86
2023/02/22 10:36:25;;;;;;;0.10;0.10;;;;;;;-145.06;100.00;53870.09;10415606;28;20021;-84
2023/02/22 10:41:31;;;;;;;0.00;0.00;;;;;;;-145.06;100.00;53845.81;10437044;28;20029;-86
2023/02/22 10:46:33;;;;;;;0.10;0.10;;;;;;;-145.06;100.00;53843.78;10440744;28;20044;-85
2023/02/22 10:51:34;;;;;;;0.10;0.10;;;;;;;-145.06;100.00;53851.88;10420131;28;20075;-84
2023/02/22 10:56:46;;;;;;;0.00;0.00;;;;;;;-145.06;100.00;53827.59;10430144;28;20029;-83
2023/02/22 11:01:47;;;;;;;0.10;0.10;;;;;;;-145.06;100.00;53833.66;10436751;28;20042;-85
2023/02/22 11:07:06;;;;;;;0.10;0.10;;;;;;;-145.06;100.00;53795.19;10436502;28;20052;-83
2023/02/22 11:12:16;;;;;;;0.10;0.10;;;;;;;-145.06;100.00;53835.69;10425012;28;20368;-86
2023/02/22 11:17:26;;;;;;;0.10;0.10;;;;;;;-145.06;100.00;53831.63;10418007;28;20049;-85
2023/02/22 11:22:37;;;;;;;0.10;0.10;;;;;;;-145.06;100.00;53835.69;10440967;28;20067;-85
2023/02/22 11:27:45;;;;;;;0.10;0.10;;;;;;;-145.06;100.00;53833.66;10413693;28;20047;-85
2023/02/22 11:32:56;;;;;;;0.10;0.10;;;;;;;-145.06;100.00;53843.78;10441071;28;20017;-84
2023/02/22 11:38:08;;;;;;;0.10;0.10;;;;;;;-145.06;100.00;53849.84;10419015;28;20092;-85
2023/02/22 11:43:15;;;;;;;0.10;0.10;;;;;;;-145.06;100.00;53857.97;10429152;28;20472;-80
2023/02/22 11:48:20;;;;;;;0.10;0.10;;;;;;;-145.06;100.00;53807.31;10404865;28;20021;-83
2023/02/22 11:53:50;;;;;;;0.10;0.10;;;;;;;-145.06;100.00;53799.22;10423357;28;20036;-83
2023/02/22 11:59:11;;;;;;;0.10;0.10;;;;;;;-145.06;100.00;53841.75;10413788;28;20021;-84
2023/02/22 12:04:32;;;;;;;0.10;0.10;;;;;;;-145.06;100.00;53811.38;10436947;28;20111;-85
2023/02/22 12:09:58;;;;;;;0.10;0.10;;;;;;;-145.06;100.00;53778.97;10438935;28;20071;-85
2023/02/22 12:15:27;;;;;;;0.00;0.00;;;;;;;-145.06;100.00;53827.59;10428044;28;20032;-83
2023/02/22 12:20:38;;;;;;;0.00;0.00;;;;;;;-145.06;100.00;53829.59;10415115;28;20021;-85
2023/02/22 12:25:57;;;;;;;0.10;0.10;;;;;;;-145.06;100.00;53797.22;10441095;28;20270;-85
2023/02/22 12:31:16;;;;;;;0.03;0.03;;;;;;;-145.06;100.00;53841.75;10446977;28;20135;-84
2023/02/22 12:36:21;;;;;;;0.10;0.10;;;;;;;-145.06;100.00;53839.72;10434342;28;20431;-82
2023/02/22 12:41:57;;;;;;;0.10;0.10;;;;;;;-145.06;100.00;53795.19;10429756;28;20112;-82
2023/02/22 12:46:59;;;;;;;0.00;0.00;;;;;;;-145.06;100.00;53813.41;10369811;28;20028;-85
2023/02/22 12:51:59;;;;;;;0.10;0.10;;;;;;;-145.06;100.00;53799.22;10423495;28;20021;-83
2023/02/22 12:57:15;;;;;;;0.10;0.10;;;;;;;-145.06;100.00;53793.16;10441721;28;20025;-83
2023/02/22 13:02:42;;;;;;;0.05;0.05;;;;;;;-145.06;100.00;53787.06;10415746;28;20075;-84
2023/02/22 13:07:42;;;;;;;0.10;0.10;;;;;;;-145.06;100.00;53817.47;10421249;28;20033;-84
2023/02/22 13:13:03;;;;;;;0.10;0.10;;;;;;;-145.06;100.00;53799.22;10422055;28;20594;-84
2023/02/22 13:18:22;;;;;;;0.10;0.10;;;;;;;-145.06;100.00;53813.41;10421001;28;20052;-82
2023/02/22 13:23:41;;;;;;;0.10;0.10;;;;;;;-145.06;100.00;53805.31;10430832;28;20031;-83
2023/02/22 13:29:07;;;;;;;0.10;0.10;;;;;;;-145.06;100.00;53803.28;10443583;28;20539;-84
2023/02/22 13:34:35;;;;;;;0.10;0.10;;;;;;;-145.06;100.00;53827.59;10436351;28;20032;-84
2023/02/22 13:39:53;;;;;;;0.10;0.10;;;;;;;-145.06;100.00;53815.44;10412959;28;20025;-84
2023/02/22 13:45:31;;;;;;;0.10;0.10;;;;;;;-145.06;100.00;53827.59;10439370;28;20022;-82
2023/02/22 13:50:31;;;;;;;0.00;0.00;;;;;;;-145.06;100.00;53817.47;10447488;28;20045;-83
2023/02/22 13:55:34;;;;;;;0.10;0.10;;;;;;;-145.06;100.00;53807.31;10443460;28;20024;-81
2023/02/22 14:00:41;;;;;;;0.10;0.10;;;;;;;-145.06;100.00;53819.47;10424727;28;20040;-86
2023/02/22 14:05:41;;;;;;;0.10;0.10;;;;;;;-145.06;100.00;53839.72;10447854;28;20013;-85
2023/02/22 14:10:59;;;;;;;0.10;0.10;;;;;;;-145.06;100.00;53795.19;10440812;28;20029;-86
2023/02/22 14:15:59;;;;;;;0.10;0.10;;;;;;;-145.06;100.00;53849.84;10411416;28;20379;-84
2023/02/22 14:21:21;;;;;;;0.05;0.05;;;;;;;-145.06;100.00;53843.78;10440863;28;20028;-85
2023/02/22 14:26:21;;;;;;;0.10;0.10;;;;;;;-145.06;100.00;53833.66;10426763;28;20022;-84
2023/02/22 14:31:26;;;;;;;0.00;0.00;;;;;;;-145.06;100.00;53823.53;10455232;28;20554;-84
2023/02/22 14:36:33;;;;;;;0.10;0.10;;;;;;;-145.06;100.00;53831.63;10427734;28;20383;-86
2023/02/22 14:41:36;;;;;;;0.10;0.10;;;;;;;-145.06;100.00;53841.75;10427889;28;20094;-85
2023/02/22 14:46:40;;;;;;;0.00;0.00;;;;;;;-145.06;100.00;53843.78;10412832;28;20467;-85
2023/02/22 14:51:48;;;;;;;0.00;0.00;;;;;;;-145.06;100.00;53843.78;10433340;28;20111;-85
2023/02/22 14:57:26;;;;;;;0.10;0.10;;;;;;;-145.06;100.00;53833.66;10422393;28;20074;-83
2023/02/22 15:02:37;;;;;;;0.10;0.10;;;;;;;-145.06;100.00;53864.03;10415890;28;20435;-81
2023/02/22 15:07:38;;;;;;;0.10;0.10;;;;;;;-145.06;100.00;53835.69;10422987;28;20013;-83
2023/02/22 15:12:38;;;;;;;0.00;0.00;;;;;;;-145.06;100.00;53837.72;10423369;28;20044;-83
2023/02/22 15:17:39;;;;;;;0.10;0.10;;;;;;;-145.06;100.00;53872.13;10427063;28;20016;-83
2023/02/22 15:22:39;;;;;;;0.00;0.00;;;;;;;-145.06;100.00;53855.94;10434220;28;20526;-82
2023/02/22 15:27:46;;;;;;;0.10;0.10;;;;;;;-145.06;100.00;53776.94;10448983;28;20027;-82
2023/02/22 15:32:47;;;;;;;0.10;0.10;;;;;;;-145.06;100.00;53809.34;10435495;28;20051;-83
2023/02/22 15:38:05;;;;;;;0.10;0.10;;;;;;;-145.06;100.00;53815.44;10408185;28;20056;-83
2023/02/22 15:43:09;;;;;;;0.10;0.10;;;;;;;-145.06;100.00;53866.06;10417691;23;20053;-82
2023/02/22 15:48:10;;;;;;;0.00;0.00;;;;;;;-145.06;100.00;53827.59;10391254;28;20464;-83
2023/02/22 15:53:20;;;;;;;0.10;0.10;;;;;;;-145.06;100.00;53827.59;10362007;28;20048;-81
2023/02/22 15:58:27;;;;;;;0.10;0.10;;;;;;;-145.06;100.00;53833.66;10386517;28;20077;-83
2023/02/22 16:03:43;;;;;;;0.00;0.00;;;;;;;-145.06;100.00;53817.47;10359186;28;20028;-83
2023/02/22 16:08:49;;;;;;;0.10;0.10;;;;;;;-145.06;100.00;53821.50;10357274;28;20050;-83
2023/02/22 16:13:53;;;;;;;0.10;0.10;;;;;;;-145.06;100.00;53851.88;10368148;28;20029;-83
2023/02/22 16:19:23;;;;;;;0.10;0.10;;;;;;;-145.06;100.00;53847.84;10387174;28;20036;-83
2023/02/22 16:24:34;;;;;;;0.10;0.10;;;;;;;-145.06;100.00;53815.44;10372092;28;20030;-83
2023/02/22 16:29:34;;;;;;;0.00;0.00;;;;;;;-145.06;100.00;53843.78;10396112;28;20042;-82
2023/02/22 16:34:35;;;;;;;0.10;0.10;;;;;;;-145.06;100.00;53880.22;10362400;28;20035;-82
2023/02/22 16:39:36;;;;;;;0.10;0.10;;;;;;;-145.06;100.00;53849.84;10376852;28;20021;-82
2023/02/22 16:44:36;;;;;;;0.10;0.10;;;;;;;-145.06;100.00;53847.84;10389108;28;20050;-83
2023/02/22 16:49:37;;;;;;;0.08;0.08;;;;;;;-145.06;100.00;53803.28;10385261;28;20053;-82
2023/02/22 16:54:44;;;;;;;0.00;0.00;;;;;;;-145.06;100.00;53841.75;10375670;28;20406;-82
2023/02/22 16:59:48;;;;;;;0.10;0.10;;;;;;;-145.06;100.00;53835.69;10393300;28;20036;-82
2023/02/22 17:04:49;;;;;;;0.10;0.10;;;;;;;-145.06;100.00;53819.47;10375374;28;20030;-81
2023/02/22 17:09:52;;;;;;;0.10;0.10;;;;;;;-145.06;100.00;53827.59;10381983;28;20029;-82
2023/02/22 17:14:52;;;;;;;0.10;0.10;;;;;;;-145.06;100.00;53878.22;10372496;28;20025;-82
2023/02/22 17:19:53;;;;;;;0.00;0.00;;;;;;;-145.06;100.00;53841.75;10382440;28;20064;-83
2023/02/22 17:24:53;;;;;;;0.10;0.10;;;;;;;-145.06;100.00;53805.31;10376032;28;20029;-83
2023/02/22 17:29:54;;;;;;;0.10;0.10;;;;;;;-145.06;100.00;53859.97;10383543;28;20365;-83
2023/02/22 17:34:54;;;;;;;0.00;0.00;;;;;;;-145.06;100.00;53870.09;10372799;28;20087;-83
2023/02/22 17:39:54;;;;;;;0.10;0.10;;;;;;;-145.06;100.00;53886.31;10384934;28;20032;-83
2023/02/22 17:44:55;;;;;;;0.00;0.00;;;;;;;-145.06;100.00;53839.72;10396678;28;20028;-83
2023/02/22 17:49:56;;;;;;;0.10;0.10;;;;;;;-145.06;100.00;53853.91;10405384;28;20025;-83
2023/02/22 17:54:57;;;;;;;0.05;0.05;;;;;;;-145.06;100.00;53825.56;10387562;28;20021;-83
2023/02/22 17:59:58;;;;;;;0.00;0.00;;;;;;;-145.06;100.00;53845.81;10370426;28;20400;-84
2023/02/22 18:05:00;;;;;;;0.10;0.10;;;;;;;-145.06;100.00;53841.75;10391995;28;20030;-84
2023/02/22 18:10:04;;;;;;;0.10;0.10;;;;;;;-145.06;100.00;53821.50;10387837;28;20112;-83
2023/02/22 18:15:07;;;;;;;0.10;0.10;;;;;;;-145.06;100.00;53882.25;10386617;28;20028;-84
2023/02/22 18:20:11;;;;;;;0.10;0.10;;;;;;;-145.06;100.00;53864.03;10375890;28;20268;-83
2023/02/22 18:25:14;;;;;;;0.10;0.10;;;;;;;-145.06;100.00;53862.00;10360684;28;20076;-82
2023/02/22 18:30:14;;;;;;;0.00;0.00;;;;;;;-145.06;100.00;53864.03;10369641;28;20032;-82
2023/02/22 18:35:15;;;;;;;0.00;0.00;;;;;;;-145.06;100.00;53864.03;10377137;28;20052;-81
2023/02/22 18:40:17;;;;;;;0.10;0.10;;;;;;;-145.06;100.00;53876.19;10378638;28;20396;-81
2023/02/22 18:45:18;;;;;;;0.10;0.10;;;;;;;-145.06;100.00;53843.78;10384704;28;20473;-82
2023/02/22 18:50:18;;;;;;;0.10;0.10;;;;;;;-145.06;100.00;53876.19;10372626;28;20017;-81
2023/02/22 18:55:20;;;;;;;0.37;0.37;;;;;;;-145.06;100.00;53876.19;10366915;28;20030;-82
2023/02/22 19:00:27;;;;;;;0.10;0.10;;;;;;;-145.06;100.00;53847.84;10395997;28;20276;-82
2023/02/22 19:05:27;;;;;;;0.10;0.10;;;;;;;-145.06;100.00;53874.16;10363946;28;20029;-82
2023/02/22 19:10:28;;;;;;;0.10;0.10;;;;;;;-145.06;100.00;53847.84;10372473;28;20036;-82
2023/02/22 19:15:28;;;;;;;0.08;0.08;;;;;;;-145.06;100.00;53855.94;10389277;28;20026;-83
2023/02/22 19:20:31;;;;;;;0.00;0.00;;;;;;;-145.06;100.00;53888.34;10387649;28;20022;-82
2023/02/22 19:25:32;;;;;;;0.00;0.00;;;;;;;-145.06;100.00;53849.84;10369089;28;20028;-82
2023/02/22 19:30:32;;;;;;;0.10;0.10;;;;;;;-145.06;100.00;53827.59;10388832;28;20017;-83
2023/02/22 19:35:32;;;;;;;0.03;0.03;;;;;;;-145.06;100.00;53845.81;10384573;28;20072;-82
2023/02/22 19:40:33;;;;;;;0.10;0.10;;;;;;;-145.06;100.00;53864.03;10368459;28;20022;-83
2023/02/22 19:45:38;;;;;;;0.03;0.03;;;;;;;-145.06;100.00;53843.78;10371545;28;20028;-82
2023/02/22 19:50:47;;;;;;;0.10;0.10;;;;;;;-145.06;100.00;53866.06;10377186;28;20295;-82
2023/02/22 19:55:48;;;;;;;0.10;0.10;;;;;;;-145.06;100.00;53890.38;10363207;28;20021;-83
2023/02/22 20:00:48;;;;;;;0.10;0.10;;;;;;;-145.06;100.00;53831.63;10385635;28;20111;-81
2023/02/22 20:05:49;;;;;;;0.00;0.00;;;;;;;-145.06;100.00;53843.78;10385754;28;20284;-82
2023/02/22 20:10:49;;;;;;;0.00;0.00;;;;;;;-145.06;100.00;53849.84;10373712;28;20022;-82
2023/02/22 20:15:50;;;;;;;0.00;0.00;;;;;;;-145.06;100.00;53825.56;10360497;28;20017;-82
2023/02/22 20:20:50;;;;;;;0.00;0.00;;;;;;;-145.06;100.00;53876.19;10370509;28;20018;-81
2023/02/22 20:25:55;;;;;;;0.10;0.10;;;;;;;-145.06;100.00;53868.09;10365037;28;20113;-82
2023/02/22 20:30:55;;;;;;;0.00;0.00;;;;;;;-145.06;100.00;53831.63;10368654;28;20018;-82
2023/02/22 20:35:55;;;;;;;0.00;0.00;;;;;;;-145.06;100.00;53851.88;10402743;28;20152;-82
2023/02/22 20:40:56;;;;;;;0.00;0.00;;;;;;;-145.06;100.00;53845.81;10401654;28;20221;-82
2023/02/22 20:46:04;;;;;;;0.00;0.00;;;;;;;-145.06;100.00;53847.84;10403008;28;20153;-83
2023/02/22 20:51:09;;;;;;;0.00;0.00;;;;;;;-145.06;100.00;53853.91;10395538;28;20026;-82
2023/02/22 20:56:12;;;;;;;0.10;0.10;;;;;;;-145.06;100.00;53868.09;10370709;28;20030;-82
2023/02/22 21:01:15;;;;;;;0.00;0.00;;;;;;;-145.06;100.00;53825.56;10384870;28;20022;-82
2023/02/22 21:06:20;;;;;;;0.00;0.00;;;;;;;-145.06;100.00;53831.63;10377253;28;20404;-82
2023/02/22 21:11:21;;;;;;;;;;;;;;;-145.06;100.00;53853.91;10366701;28;20021;-82
2023/02/22 21:16:23;;;;;;;0.00;0.00;;;;;;;-145.06;100.00;53872.13;10392051;28;19933;-82
2023/02/22 21:21:24;;;;;;;0.00;0.00;;;;;;;-145.06;100.00;53813.41;10391992;28;20447;-82
2023/02/22 21:26:26;;;;;;;0.00;0.00;;;;;;;-145.06;100.00;53868.09;10382446;28;20037;-82
2023/02/22 21:31:27;;;;;;;0.00;0.00;;;;;;;-145.06;100.00;53853.91;10392625;28;20044;-83
2023/02/22 21:36:27;;;;;;;0.00;0.00;;;;;;;-145.06;100.00;53876.19;10381428;28;20017;-81
2023/02/22 21:41:29;;;;;;;0.00;0.00;;;;;;;-145.06;100.00;53859.97;10393468;22;20514;-82
2023/02/22 21:46:30;;;;;;;0.10;0.10;;;;;;;-145.06;100.00;53894.41;10429142;28;20196;-82
2023/02/22 21:51:32;;;;;;;0.10;0.10;;;;;;;-145.06;100.00;53868.09;10408433;28;20068;-82
2023/02/22 21:56:38;;;;;;;0.00;0.00;;;;;;;-145.06;100.00;53859.97;10412569;28;20021;-81
2023/02/22 22:01:48;;;;;;;0.10;0.10;;;;;;;-145.06;100.00;53831.63;10422787;28;20036;-81
2023/02/22 22:06:51;;;;;;;0.03;0.03;;;;;;;-145.06;100.00;53831.63;10429147;28;20170;-81
2023/02/22 22:11:57;;;;;;;0.00;0.00;;;;;;;-145.06;100.00;53872.13;10411499;28;20071;-81
2023/02/22 22:16:58;;;;;;;0.00;0.00;;;;;;;-145.06;100.00;53874.16;10407369;28;20021;-81
2023/02/22 22:21:59;;;;;;;0.08;0.08;;;;;;;-145.06;100.00;53888.34;10411510;28;20018;-82
2023/02/22 22:27:02;;;;;;;0.05;0.05;;;;;;;-145.06;100.00;53900.50;10428272;28;20025;-81
2023/02/22 22:32:04;;;;;;;0.08;0.08;;;;;;;-145.06;100.00;53880.22;10410640;28;20025;-81
2023/02/22 22:37:05;;;;;;;0.00;0.00;;;;;;;-145.06;100.00;53849.84;10428294;28;20070;-81
2023/02/22 22:42:05;;;;;;;0.10;0.10;;;;;;;-145.06;100.00;53872.13;10423488;28;20115;-82
2023/02/22 22:47:05;;;;;;;0.00;0.00;;;;;;;-145.06;100.00;53868.09;10411611;28;20022;-82
2023/02/22 22:52:06;;;;;;;0.00;0.00;;;;;;;-145.06;100.00;53876.19;10411770;28;20021;-81